Terminal Aerodrome Forecast
Issued by NWS Jackson, MS

Home | Current Version | Previous Version | Text Only | Print | Product List | Glossary On
Versions: 1 2 3 4 5 6 7 8 9 10 11 12 13 14 15
000
FTUS44 KJAN 290601 RRA
TAFGLH
TAF
KGLH 290601Z 2906/3006 16016KT P6SM SCT015 BKN025
     FM291400 17022G34KT P6SM SCT040
     FM300000 16018KT P6SM SCT025=

USA.gov is the U.S. government's official web portal to all federal, state and local government web resources and services.